createdAt,value
2022-10-13T00:00:53.938Z,99810.34
2022-10-13T00:02:55.647Z,99805.81
2022-10-13T00:04:57.366Z,99811.44
2022-10-13T00:06:59.047Z,99808.75
2022-10-13T00:09:00.711Z,99809.72
2022-10-13T00:11:02.484Z,99811.44
2022-10-13T00:13:04.824Z,99808.59
2022-10-13T00:15:07.415Z,99813.13
2022-10-13T00:17:09.163Z,99810.56
2022-10-13T00:19:14.962Z,99809.72
2022-10-13T00:21:19.123Z,99815.31
2022-10-13T00:23:20.835Z,99820.34
2022-10-13T00:25:22.546Z,99810.56
2022-10-13T00:27:24.295Z,99811.66
2022-10-13T00:29:25.998Z,99814.34
2022-10-13T00:31:31.554Z,99814.47
2022-10-13T00:33:33.259Z,99815.56
2022-10-13T00:35:35.084Z,99810.19
2022-10-13T00:37:36.759Z,99811.25
2022-10-13T00:39:38.621Z,99821.16
2022-10-13T00:41:40.296Z,99819.22
2022-10-13T00:43:58.812Z,99815.56
2022-10-13T00:46:00.508Z,99816.13
2022-10-13T00:48:02.251Z,99826.03
2022-10-13T00:50:05.124Z,99821.66
2022-10-13T00:52:06.841Z,99823.34
2022-10-13T00:54:09.668Z,99831.16
2022-10-13T00:56:11.980Z,99830.31
2022-10-13T00:58:15.760Z,99826.13
2022-10-13T01:00:17.851Z,99832.38
2022-10-13T01:02:19.978Z,99835.06
2022-10-13T01:04:23.712Z,99834.09
2022-10-13T01:06:25.430Z,99829.69
2022-10-13T01:08:28.271Z,99832.59
2022-10-13T01:10:35.262Z,99824.69
2022-10-13T01:12:49.045Z,99831.16
2022-10-13T01:15:01.538Z,99833.59
2022-10-13T01:17:36.499Z,99833.84
2022-10-13T01:20:05.526Z,99830.25
2022-10-13T01:22:37.623Z,99833.69
2022-10-13T01:24:47.710Z,99841.00
2022-10-13T01:27:12.939Z,99835.63
2022-10-13T01:29:29.201Z,99842.84
2022-10-13T01:31:49.297Z,99838.47
2022-10-13T01:33:59.702Z,99845.53
2022-10-13T01:36:03.891Z,99843.09
2022-10-13T01:38:14.355Z,99835.88
2022-10-13T01:40:18.969Z,99844.78
2022-10-13T01:42:42.938Z,99840.41
2022-10-13T01:44:48.525Z,99845.88
2022-10-13T01:46:50.503Z,99840.41
2022-10-13T01:48:53.757Z,99844.78
2022-10-13T01:50:56.381Z,99841.13
2022-10-13T01:52:59.590Z,99839.31
2022-10-13T01:55:08.847Z,99840.16
2022-10-13T01:57:46.002Z,99836.50
2022-10-13T01:59:47.706Z,99841.25
2022-10-13T02:02:23.120Z,99846.00
2022-10-13T02:04:37.698Z,99845.03
2022-10-13T02:06:39.299Z,99843.19
2022-10-13T02:08:52.246Z,99844.91
2022-10-13T02:11:01.944Z,99842.34
2022-10-13T02:13:04.465Z,99842.22
2022-10-13T02:15:07.630Z,99846.00
2022-10-13T02:17:09.386Z,99853.06
2022-10-13T02:19:13.075Z,99853.06
2022-10-13T02:21:14.731Z,99845.13
2022-10-13T02:23:17.109Z,99846.97
2022-10-13T02:25:18.860Z,99856.75
2022-10-13T02:27:20.693Z,99863.91
2022-10-13T02:29:22.386Z,99861.13
2022-10-13T02:31:24.089Z,99864.66
2022-10-13T02:33:25.790Z,99859.53
2022-10-13T02:35:27.509Z,99858.69
2022-10-13T02:37:29.249Z,99856.97
2022-10-13T02:39:31.242Z,99861.22
2022-10-13T02:41:32.928Z,99864.91
2022-10-13T02:43:34.675Z,99856.00
2022-10-13T02:45:36.362Z,99861.13
2022-10-13T02:47:38.934Z,99858.44
2022-10-13T02:49:40.603Z,99859.44
2022-10-13T02:51:42.394Z,99861.13
2022-10-13T02:53:44.103Z,99856.50
2022-10-13T02:55:45.762Z,99861.88
2022-10-13T02:57:47.465Z,99861.13
2022-10-13T02:59:49.187Z,99862.13
2022-10-13T03:01:50.864Z,99863.81
2022-10-13T03:03:52.678Z,99871.13
2022-10-13T03:05:54.395Z,99863.81
2022-10-13T03:07:56.034Z,99866.75
2022-10-13T03:09:57.906Z,99863.16
2022-10-13T03:11:59.546Z,99860.63
2022-10-13T03:14:01.217Z,99861.91
2022-10-13T03:16:03.054Z,99862.91
2022-10-13T03:18:04.839Z,99863.91
2022-10-13T03:20:07.277Z,99866.44
2022-10-13T03:22:08.964Z,99869.25
2022-10-13T03:24:10.668Z,99875.59
2022-10-13T03:26:12.394Z,99870.22
2022-10-13T03:28:14.183Z,99874.72
2022-10-13T03:30:15.969Z,99873.88
2022-10-13T03:32:18.073Z,99871.94
2022-10-13T03:34:20.099Z,99870.31
2022-10-13T03:36:21.769Z,99874.84
2022-10-13T03:38:23.546Z,99869.47
2022-10-13T03:40:25.377Z,99870.31
2022-10-13T03:42:27.131Z,99866.69
2022-10-13T03:44:28.814Z,99875.47
2022-10-13T03:46:30.749Z,99875.47
2022-10-13T03:48:33.042Z,99879.13
2022-10-13T03:50:34.800Z,99876.72
2022-10-13T03:52:36.482Z,99884.31
2022-10-13T03:54:38.125Z,99883.59
2022-10-13T03:56:39.987Z,99885.75
2022-10-13T03:58:41.704Z,99887.72
2022-10-13T04:00:43.481Z,99889.16
2022-10-13T04:02:45.196Z,99885.53
2022-10-13T04:04:46.896Z,99897.47
2022-10-13T04:06:48.557Z,99890.50
2022-10-13T04:08:50.492Z,99893.84
2022-10-13T04:11:01.315Z,99902.41
2022-10-13T04:13:03.058Z,99899.47
2022-10-13T04:15:05.151Z,99898.72
2022-10-13T04:17:06.912Z,99908.69
2022-10-13T04:19:11.000Z,99907.22
2022-10-13T04:21:14.736Z,99903.56
2022-10-13T04:23:16.448Z,99903.09
2022-10-13T04:25:18.391Z,99898.94
2022-10-13T04:27:20.137Z,99899.50
2022-10-13T04:29:21.915Z,99911.22
2022-10-13T04:31:24.158Z,99910.38
2022-10-13T04:33:25.863Z,99902.66
2022-10-13T04:35:27.576Z,99911.78
2022-10-13T04:37:29.297Z,99908.38
2022-10-13T04:39:31.069Z,99904.94
2022-10-13T04:41:32.789Z,99908.38
2022-10-13T04:43:34.565Z,99910.31
2022-10-13T04:45:36.277Z,99908.25
2022-10-13T04:47:38.001Z,99909.22
2022-10-13T04:49:39.677Z,99910.31
2022-10-13T04:51:41.342Z,99915.56
2022-10-13T04:53:43.055Z,99912.88
2022-10-13T04:55:44.771Z,99911.06
2022-10-13T04:57:46.455Z,99913.72
2022-10-13T04:59:48.181Z,99912.66
2022-10-13T05:01:49.841Z,99918.25
2022-10-13T05:03:55.858Z,99915.66
2022-10-13T05:05:57.632Z,99916.66
2022-10-13T05:07:59.330Z,99923.63
2022-10-13T05:10:01.085Z,99925.22
2022-10-13T05:12:02.815Z,99920.06
2022-10-13T05:14:04.584Z,99925.56
2022-10-13T05:16:09.869Z,99936.28
2022-10-13T05:18:11.558Z,99938.22
2022-10-13T05:20:13.359Z,99934.78
2022-10-13T05:22:14.997Z,99941.00
2022-10-13T05:24:16.777Z,99935.53
2022-10-13T05:26:18.611Z,99940.25
2022-10-13T05:28:20.344Z,99944.69
2022-10-13T05:30:22.094Z,99939.41
2022-10-13T05:32:23.793Z,99939.31
2022-10-13T05:34:25.575Z,99940.06
2022-10-13T05:36:29.337Z,99943.19
2022-10-13T05:38:31.002Z,99952.91
2022-10-13T05:40:32.760Z,99945.00
2022-10-13T05:42:35.166Z,99951.13
2022-10-13T05:44:36.941Z,99940.38
2022-10-13T05:46:38.677Z,99949.38
2022-10-13T05:48:40.352Z,99950.59
2022-10-13T05:50:42.067Z,99947.78
2022-10-13T05:52:43.776Z,99944.25
2022-10-13T05:54:47.422Z,99946.84
2022-10-13T05:56:57.544Z,99945.09
2022-10-13T05:59:04.276Z,99949.53
2022-10-13T06:01:07.200Z,99947.69
2022-10-13T06:03:13.596Z,99954.34
2022-10-13T06:05:16.913Z,99953.38
2022-10-13T06:07:18.672Z,99961.19
2022-10-13T06:09:20.287Z,99956.69
2022-10-13T06:11:21.949Z,99956.69
2022-10-13T06:13:23.680Z,99955.84
2022-10-13T06:15:28.112Z,99957.56
2022-10-13T06:17:30.069Z,99956.59
2022-10-13T06:19:31.794Z,99957.78
2022-10-13T06:21:36.503Z,99959.69
2022-10-13T06:23:38.234Z,99965.06
2022-10-13T06:25:47.638Z,99967.66
2022-10-13T06:27:49.320Z,99962.28
2022-10-13T06:29:51.049Z,99964.41
2022-10-13T06:31:52.847Z,99968.31
2022-10-13T06:33:54.650Z,99967.56
2022-10-13T06:35:56.344Z,99969.38
2022-10-13T06:37:58.053Z,99964.63
2022-10-13T06:39:59.712Z,99967.75
2022-10-13T06:42:01.667Z,99965.63
2022-10-13T06:44:03.687Z,99968.31
2022-10-13T06:46:05.502Z,99965.50
2022-10-13T06:48:07.213Z,99968.50
2022-10-13T06:50:09.478Z,99964.88
2022-10-13T06:52:11.200Z,99969.47
2022-10-13T06:54:12.870Z,99966.91
2022-10-13T06:56:14.573Z,99970.25
2022-10-13T06:58:16.224Z,99967.31
2022-10-13T07:00:18.101Z,99965.06
2022-10-13T07:02:19.932Z,99963.13
2022-10-13T07:04:21.805Z,99971.19
2022-10-13T07:06:23.533Z,99957.91
2022-10-13T07:08:25.261Z,99960.00
2022-10-13T07:10:27.001Z,99964.53
2022-10-13T07:12:28.792Z,99970.97
2022-10-13T07:14:30.490Z,99979.66
2022-10-13T07:16:32.226Z,99977.94
2022-10-13T07:18:33.838Z,99982.34
2022-10-13T07:20:35.608Z,99980.44
2022-10-13T07:22:37.242Z,99988.28
2022-10-13T07:24:38.945Z,99983.97
2022-10-13T07:26:40.650Z,99990.19
2022-10-13T07:28:42.963Z,99994.03
2022-10-13T07:30:44.807Z,99989.22
2022-10-13T07:32:46.547Z,99986.81
2022-10-13T07:34:48.315Z,99983.97
2022-10-13T07:36:49.996Z,99985.13
2022-10-13T07:38:51.725Z,99988.78
2022-10-13T07:40:53.399Z,99996.72
2022-10-13T07:42:56.694Z,99998.53
2022-10-13T07:44:58.501Z,100004.88
2022-10-13T07:47:00.181Z,100002.31
2022-10-13T07:49:01.858Z,100005.00
2022-10-13T07:51:07.362Z,100010.25
2022-10-13T07:53:09.036Z,100015.72
2022-10-13T07:55:10.911Z,100013.25
2022-10-13T07:57:12.584Z,100011.19
2022-10-13T07:59:14.341Z,100008.53
2022-10-13T08:01:17.631Z,100008.66
2022-10-13T08:03:19.474Z,100014.72
2022-10-13T08:05:21.326Z,100016.34
2022-10-13T08:07:23.352Z,100011.19
2022-10-13T08:09:26.043Z,100017.41
2022-10-13T08:11:27.842Z,100013.78
2022-10-13T08:13:29.603Z,100014.63
2022-10-13T08:15:31.270Z,100017.41
2022-10-13T08:17:32.979Z,100017.22
2022-10-13T08:19:34.697Z,100011.84
2022-10-13T08:23:58.216Z,100020.84
2022-10-13T08:25:59.910Z,100021.72
2022-10-13T08:28:01.578Z,100027.94
2022-10-13T08:30:03.550Z,100023.53
2022-10-13T08:32:05.402Z,100026.44
2022-10-13T08:34:07.278Z,100017.31
2022-10-13T08:36:09.108Z,100025.38
2022-10-13T08:38:10.804Z,100013.78
2022-10-13T08:40:15.303Z,100016.34
2022-10-13T08:42:21.536Z,100017.66
2022-10-13T08:45:21.833Z,100012.28
2022-10-13T08:47:49.839Z,100014.00
2022-10-13T08:49:54.358Z,100026.69
2022-10-13T08:51:59.798Z,100020.97
2022-10-13T08:54:01.587Z,100029.03
2022-10-13T08:56:07.186Z,100023.00
2022-10-13T08:58:15.203Z,100024.75
2022-10-13T09:00:17.312Z,100022.25
2022-10-13T09:02:29.452Z,100030.53
2022-10-13T09:04:32.641Z,100025.41
2022-10-13T09:06:38.323Z,100025.41
2022-10-13T09:08:52.381Z,100022.47
2022-10-13T09:10:54.202Z,100025.16
2022-10-13T09:12:55.967Z,100027.94
2022-10-13T09:15:02.439Z,100034.06
2022-10-13T09:17:24.467Z,100030.53
2022-10-13T09:19:30.068Z,100030.31
2022-10-13T09:21:31.735Z,100028.59
2022-10-13T09:23:34.435Z,100027.75
2022-10-13T09:25:46.836Z,100022.38
2022-10-13T09:27:58.373Z,100025.16
2022-10-13T09:30:02.085Z,100021.19
2022-10-13T09:32:22.876Z,100017.13
2022-10-13T09:34:25.292Z,100023.44
2022-10-13T09:36:27.160Z,100021.09
2022-10-13T09:38:29.134Z,100016.59
2022-10-13T09:40:31.049Z,100015.38
2022-10-13T09:42:32.833Z,100015.38
2022-10-13T09:44:34.538Z,100018.06
2022-10-13T09:46:44.982Z,100022.72
2022-10-13T09:48:49.618Z,100012.69
2022-10-13T09:50:52.855Z,100016.13
2022-10-13T09:52:55.938Z,100017.88
2022-10-13T09:55:00.625Z,100009.94
2022-10-13T09:57:33.455Z,100018.72
2022-10-13T09:59:41.367Z,100013.69
2022-10-13T10:01:45.518Z,100008.31
2022-10-13T10:03:47.303Z,100012.31
2022-10-13T10:05:53.698Z,100010.25
2022-10-13T10:07:58.975Z,100007.78
2022-10-13T10:10:07.245Z,100006.94
2022-10-13T10:12:10.150Z,100005.13
2022-10-13T10:14:17.795Z,100005.44
2022-10-13T10:16:31.555Z,100012.19
2022-10-13T10:18:59.241Z,100007.78
2022-10-13T10:21:08.700Z,100012.94
2022-10-13T10:23:29.371Z,100017.53
2022-10-13T10:25:42.888Z,100012.31
2022-10-13T10:27:45.884Z,100018.19
2022-10-13T10:29:51.794Z,100015.75
2022-10-13T10:31:53.403Z,100021.63
2022-10-13T10:34:13.609Z,100011.53
2022-10-13T10:36:22.097Z,100023.66
2022-10-13T10:38:30.643Z,100021.72
2022-10-13T10:40:39.351Z,100023.44
2022-10-13T10:42:51.850Z,100023.88
2022-10-13T10:44:53.935Z,100014.00
2022-10-13T10:46:56.522Z,100022.16
2022-10-13T10:49:02.568Z,100021.09
2022-10-13T10:51:06.630Z,100024.50
2022-10-13T10:53:32.108Z,100020.03
2022-10-13T10:55:43.991Z,100027.00
2022-10-13T10:58:13.993Z,100023.44
2022-10-13T11:00:24.772Z,100027.75
2022-10-13T11:02:41.555Z,100023.88
2022-10-13T11:04:49.467Z,100019.25
2022-10-13T11:06:51.156Z,100017.41
2022-10-13T11:08:52.887Z,100018.50
2022-10-13T11:11:37.217Z,100015.50
2022-10-13T11:13:50.473Z,100013.34
2022-10-13T11:15:52.244Z,100016.47
2022-10-13T11:17:54.022Z,100015.28
2022-10-13T11:19:55.845Z,100012.69
2022-10-13T11:21:57.524Z,100010.03
2022-10-13T11:24:02.076Z,100006.47
2022-10-13T11:26:25.754Z,100004.88
2022-10-13T11:28:42.503Z,100012.94
2022-10-13T11:30:46.151Z,100005.88
2022-10-13T11:32:47.867Z,100013.16
2022-10-13T11:35:04.535Z,100011.44
2022-10-13T11:37:15.360Z,99995.34
2022-10-13T11:39:25.664Z,99997.25
2022-10-13T11:41:28.253Z,99996.41
2022-10-13T11:43:35.333Z,99994.59
2022-10-13T11:45:39.956Z,99993.88
2022-10-13T11:48:00.073Z,100007.34
2022-10-13T11:50:13.542Z,100004.59
2022-10-13T11:52:40.861Z,99989.41
2022-10-13T11:54:50.794Z,99987.63
2022-10-13T11:56:54.288Z,99990.41
2022-10-13T11:58:56.031Z,99991.25
2022-10-13T12:01:01.106Z,99990.41
2022-10-13T12:03:02.864Z,99990.41
2022-10-13T12:05:24.130Z,100003.06
2022-10-13T12:07:25.800Z,99996.84
2022-10-13T12:09:27.625Z,99990.41
2022-10-13T12:11:31.140Z,100001.13
2022-10-13T12:13:33.303Z,99998.63
2022-10-13T12:15:36.857Z,100001.31
2022-10-13T12:17:38.575Z,99993.28
2022-10-13T12:19:40.315Z,99989.63
2022-10-13T12:21:59.008Z,99998.63
2022-10-13T12:24:09.674Z,99997.16
2022-10-13T12:26:23.931Z,99997.91
2022-10-13T12:28:27.887Z,99995.34
2022-10-13T12:30:31.403Z,99990.81
2022-10-13T12:32:33.965Z,99989.88
2022-10-13T12:34:35.722Z,99992.56
2022-10-13T12:36:38.727Z,99983.53
2022-10-13T12:38:45.537Z,99995.75
2022-10-13T12:40:51.116Z,99996.72
2022-10-13T12:42:52.824Z,99995.97
2022-10-13T12:44:54.583Z,99990.19
2022-10-13T12:46:59.921Z,99997.59
2022-10-13T12:49:27.272Z,99997.88
2022-10-13T12:51:29.026Z,99995.31
2022-10-13T12:53:30.743Z,99991.31
2022-10-13T12:55:32.486Z,99993.78
2022-10-13T12:57:36.006Z,99998.94
2022-10-13T12:59:39.150Z,100000.44
2022-10-13T13:01:40.881Z,99998.47
2022-10-13T13:03:42.853Z,99997.63
2022-10-13T13:05:49.256Z,100010.94
2022-10-13T13:07:53.534Z,100003.84
2022-10-13T13:10:15.554Z,100009.22
2022-10-13T13:12:22.608Z,100001.16
2022-10-13T13:14:46.877Z,100011.69
2022-10-13T13:17:10.356Z,100006.44
2022-10-13T13:19:22.072Z,100012.03
2022-10-13T13:21:23.797Z,100012.22
2022-10-13T13:23:25.494Z,100011.38
2022-10-13T13:25:27.169Z,100012.34
2022-10-13T13:27:37.480Z,100013.31
2022-10-13T13:29:39.229Z,100016.97
2022-10-13T13:31:40.992Z,100018.28
2022-10-13T13:33:42.690Z,100019.25
2022-10-13T13:35:44.381Z,100019.47
2022-10-13T13:37:47.814Z,100017.53
2022-10-13T13:39:49.721Z,100013.53
2022-10-13T13:41:51.401Z,100012.34
2022-10-13T13:43:54.590Z,100022.88
2022-10-13T13:45:56.352Z,100018.84
2022-10-13T13:48:00.705Z,100019.00
2022-10-13T13:50:02.870Z,100019.19
2022-10-13T13:52:05.079Z,100018.00
2022-10-13T13:54:06.981Z,100021.03
2022-10-13T13:56:16.346Z,100011.88
2022-10-13T13:58:18.021Z,100021.19
2022-10-13T14:00:19.958Z,100023.16
2022-10-13T14:02:21.866Z,100022.75
2022-10-13T14:04:23.563Z,100015.31
2022-10-13T14:06:25.326Z,100019.84
2022-10-13T14:08:29.906Z,100022.50
2022-10-13T14:10:31.965Z,100015.66
2022-10-13T14:12:33.813Z,100023.72
2022-10-13T14:14:35.649Z,100027.63
2022-10-13T14:16:37.337Z,100025.94
2022-10-13T14:18:39.088Z,100030.81
2022-10-13T14:20:41.255Z,100024.59
2022-10-13T14:22:42.983Z,100023.25
2022-10-13T14:24:44.704Z,100028.16
2022-10-13T14:26:46.538Z,100025.31
2022-10-13T14:28:48.339Z,100024.94
2022-10-13T14:30:50.175Z,100024.25
2022-10-13T14:32:52.107Z,100019.69
2022-10-13T14:34:53.887Z,100027.41
2022-10-13T14:36:55.708Z,100013.97
2022-10-13T14:38:57.644Z,100026.31
2022-10-13T14:41:03.800Z,100026.78
2022-10-13T14:43:05.719Z,100032.31
2022-10-13T14:45:07.874Z,100028.81
2022-10-13T14:47:09.573Z,100026.34
2022-10-13T14:49:11.694Z,100026.25
2022-10-13T14:51:13.438Z,100031.75
2022-10-13T14:53:15.252Z,100033.22
2022-10-13T14:55:17.594Z,100035.63
2022-10-13T14:57:19.786Z,100042.53
2022-10-13T14:59:21.747Z,100037.41
2022-10-13T15:01:23.520Z,100033.44
2022-10-13T15:03:25.506Z,100037.13
2022-10-13T15:05:27.391Z,100042.53
2022-10-13T15:07:29.189Z,100042.06
2022-10-13T15:09:45.006Z,100051.91
2022-10-13T15:11:53.160Z,100041.31
2022-10-13T15:13:54.987Z,100041.66
2022-10-13T15:15:57.147Z,100044.91
2022-10-13T15:17:58.920Z,100041.59
2022-10-13T15:20:00.622Z,100040.03
2022-10-13T15:22:02.300Z,100043.72
2022-10-13T15:24:04.182Z,100042.41
2022-10-13T15:26:06.185Z,100042.44
2022-10-13T15:28:08.056Z,100045.75
2022-10-13T15:30:10.712Z,100048.56
2022-10-13T15:32:17.023Z,100046.25
2022-10-13T15:34:18.703Z,100048.78
2022-10-13T15:36:21.302Z,100045.94
2022-10-13T15:38:23.126Z,100051.31
2022-10-13T15:40:25.041Z,100047.19
2022-10-13T15:42:26.849Z,100047.28
2022-10-13T15:44:30.874Z,100054.38
2022-10-13T15:46:35.905Z,100047.19
2022-10-13T15:48:38.834Z,100045.00
2022-10-13T15:50:40.571Z,100049.09
2022-10-13T15:52:42.411Z,100050.91
2022-10-13T15:54:44.260Z,100050.69
2022-10-13T15:56:45.969Z,100055.94
2022-10-13T15:58:48.452Z,100041.59
2022-10-13T16:00:50.172Z,100039.78
2022-10-13T16:02:52.041Z,100051.66
2022-10-13T16:04:53.886Z,100054.34
2022-10-13T16:06:55.651Z,100055.66
2022-10-13T16:08:57.446Z,100053.13
2022-10-13T16:10:59.229Z,100060.69
2022-10-13T16:13:00.901Z,100056.41
2022-10-13T16:15:02.642Z,100049.13
2022-10-13T16:17:04.589Z,100053.31
2022-10-13T16:19:06.456Z,100043.84
2022-10-13T16:21:18.501Z,100041.81
2022-10-13T16:23:20.816Z,100036.31
2022-10-13T16:25:22.433Z,100044.25
2022-10-13T16:27:24.286Z,100041.81
2022-10-13T16:29:26.401Z,100038.84
2022-10-13T16:31:28.174Z,100040.53
2022-10-13T16:33:29.905Z,100044.13
2022-10-13T16:35:31.672Z,100041.47
2022-10-13T16:37:33.356Z,100048.44
2022-10-13T16:39:38.645Z,100050.00
2022-10-13T16:41:43.025Z,100048.84
2022-10-13T16:43:44.964Z,100052.44
2022-10-13T16:45:59.997Z,100057.78
2022-10-13T16:48:02.163Z,100050.16
2022-10-13T16:50:04.482Z,100051.88
2022-10-13T16:52:06.171Z,100061.41
2022-10-13T16:54:08.772Z,100064.31
2022-10-13T16:56:10.485Z,100064.75
2022-10-13T16:58:12.359Z,100062.03
2022-10-13T17:00:14.863Z,100064.63
2022-10-13T17:02:17.897Z,100066.25
2022-10-13T17:04:22.164Z,100061.78
2022-10-13T17:06:25.478Z,100068.91
2022-10-13T17:08:27.229Z,100061.03
2022-10-13T17:10:29.005Z,100061.16
2022-10-13T17:12:30.752Z,100058.13
2022-10-13T17:14:32.522Z,100057.84
2022-10-13T17:16:35.611Z,100058.84
2022-10-13T17:18:37.483Z,100067.50
2022-10-13T17:20:40.337Z,100055.19
2022-10-13T17:22:42.072Z,100059.97
2022-10-13T17:24:43.759Z,100064.00
2022-10-13T17:26:45.497Z,100063.16
2022-10-13T17:28:47.265Z,100066.59
2022-10-13T17:31:02.936Z,100061.53
2022-10-13T17:33:04.760Z,100063.50
2022-10-13T17:35:06.755Z,100057.41
2022-10-13T17:37:08.531Z,100059.09
2022-10-13T17:39:11.215Z,100060.69
2022-10-13T17:41:12.954Z,100063.75
2022-10-13T17:43:14.781Z,100060.56
2022-10-13T17:45:17.183Z,100057.41
2022-10-13T17:47:20.217Z,100060.09
2022-10-13T17:49:22.118Z,100061.19
2022-10-13T17:51:23.947Z,100071.44
2022-10-13T17:53:25.773Z,100067.28
2022-10-13T17:55:27.615Z,100063.22
2022-10-13T17:57:38.908Z,100060.59
2022-10-13T17:59:40.660Z,100066.44
2022-10-13T18:01:43.014Z,100064.00
2022-10-13T18:03:52.561Z,100063.75
2022-10-13T18:05:54.452Z,100060.81
2022-10-13T18:07:59.271Z,100065.91
2022-10-13T18:10:01.128Z,100071.72
2022-10-13T18:12:02.907Z,100069.53
2022-10-13T18:14:04.978Z,100063.91
2022-10-13T18:16:08.563Z,100067.56
2022-10-13T18:18:13.688Z,100068.88
2022-10-13T18:20:15.503Z,100073.66
2022-10-13T18:22:17.761Z,100070.44
2022-10-13T18:24:20.389Z,100062.59
2022-10-13T18:26:22.642Z,100065.53
2022-10-13T18:28:24.349Z,100072.84
2022-10-13T18:30:26.335Z,100070.38
2022-10-13T18:32:27.973Z,100071.47
2022-10-13T18:34:29.768Z,100076.59
2022-10-13T18:36:35.237Z,100075.00
2022-10-13T18:38:37.131Z,100066.31
2022-10-13T18:40:38.869Z,100074.16
2022-10-13T18:42:43.396Z,100077.41
2022-10-13T18:44:48.358Z,100078.28
2022-10-13T18:46:50.979Z,100077.59
2022-10-13T18:48:53.275Z,100076.00
2022-10-13T18:50:56.337Z,100080.63
2022-10-13T18:52:58.041Z,100080.63
2022-10-13T18:54:59.938Z,100079.03
2022-10-13T18:57:01.803Z,100082.22
2022-10-13T18:59:04.218Z,100085.88
2022-10-13T19:01:08.305Z,100083.41
2022-10-13T19:03:11.605Z,100084.28
2022-10-13T19:05:13.319Z,100086.22
2022-10-13T19:07:14.928Z,100083.41
2022-10-13T19:09:16.794Z,100087.06
2022-10-13T19:11:20.184Z,100083.63
2022-10-13T19:13:21.868Z,100077.41
2022-10-13T19:15:23.576Z,100089.00
2022-10-13T19:17:25.313Z,100081.09
2022-10-13T19:19:27.000Z,100078.50
2022-10-13T19:21:28.806Z,100077.66
2022-10-13T19:23:30.727Z,100081.09
2022-10-13T19:25:32.575Z,100074.09
2022-10-13T19:27:34.269Z,100076.78
2022-10-13T19:29:36.019Z,100083.88
2022-10-13T19:31:38.172Z,100080.44
2022-10-13T19:33:44.342Z,100077.84
2022-10-13T19:35:48.753Z,100083.22
2022-10-13T19:37:50.469Z,100082.47
2022-10-13T19:39:52.175Z,100079.78
2022-10-13T19:41:55.224Z,100082.63
2022-10-13T19:43:57.017Z,100082.63
2022-10-13T19:45:59.854Z,100078.19
2022-10-13T19:48:02.056Z,100084.44
2022-10-13T19:50:04.269Z,100080.88
2022-10-13T19:52:05.969Z,100079.19
2022-10-13T19:54:08.197Z,100077.00
2022-10-13T19:56:21.638Z,100076.91
2022-10-13T19:58:23.422Z,100083.38
2022-10-13T20:00:25.158Z,100082.28
2022-10-13T20:02:27.022Z,100077.75
2022-10-13T20:04:28.784Z,100080.44
2022-10-13T20:06:30.522Z,100074.22
2022-10-13T20:08:32.276Z,100079.59
2022-10-13T20:10:34.275Z,100078.41
2022-10-13T20:12:35.995Z,100080.22
2022-10-13T20:14:38.430Z,100076.34
2022-10-13T20:16:40.135Z,100083.63
2022-10-13T20:18:41.992Z,100086.31
2022-10-13T20:20:43.642Z,100080.97
2022-10-13T20:22:45.345Z,100082.69
2022-10-13T20:24:47.055Z,100086.47
2022-10-13T20:26:48.995Z,100089.00
2022-10-13T20:28:51.379Z,100091.19
2022-10-13T20:30:53.151Z,100087.75
2022-10-13T20:32:56.197Z,100090.53
2022-10-13T20:34:57.952Z,100088.84
2022-10-13T20:36:59.623Z,100092.38
2022-10-13T20:39:01.288Z,100091.63
2022-10-13T20:41:17.146Z,100088.22
2022-10-13T20:43:23.468Z,100085.63
2022-10-13T20:45:27.414Z,100100.88
2022-10-13T20:47:29.178Z,100099.47
2022-10-13T20:49:30.909Z,100102.94
2022-10-13T20:51:32.658Z,100109.28
2022-10-13T20:53:35.017Z,100106.69
2022-10-13T20:55:41.624Z,100105.84
2022-10-13T20:57:43.635Z,100105.84
2022-10-13T20:59:45.311Z,100109.38
2022-10-13T21:01:47.092Z,100106.69
2022-10-13T21:03:55.156Z,100101.31
2022-10-13T21:05:56.934Z,100102.16
2022-10-13T21:07:58.654Z,100101.31
2022-10-13T21:10:00.286Z,100103.03
2022-10-13T21:12:02.103Z,100112.06
2022-10-13T21:14:03.814Z,100103.25
2022-10-13T21:16:10.459Z,100114.00
2022-10-13T21:18:12.322Z,100114.00
2022-10-13T21:20:14.067Z,100110.34
2022-10-13T21:22:15.810Z,100114.84
2022-10-13T21:24:17.573Z,100114.75
2022-10-13T21:26:21.956Z,100121.09
2022-10-13T21:28:24.125Z,100114.97
2022-10-13T21:30:25.867Z,100121.28
2022-10-13T21:32:29.990Z,100117.84
2022-10-13T21:34:31.705Z,100119.81
2022-10-13T21:36:33.537Z,100116.38
2022-10-13T21:38:35.231Z,100117.13
2022-10-13T21:40:37.971Z,100117.00
2022-10-13T21:42:39.848Z,100117.84
2022-10-13T21:44:41.693Z,100115.06
2022-10-13T21:46:43.419Z,100115.06
2022-10-13T21:48:45.883Z,100114.31
2022-10-13T21:50:47.579Z,100114.22
2022-10-13T21:52:49.215Z,100116.81
2022-10-13T21:54:51.038Z,100121.28
2022-10-13T21:56:52.751Z,100118.84
2022-10-13T21:58:54.807Z,100125.19
2022-10-13T22:01:00.071Z,100120.78
2022-10-13T22:03:01.850Z,100115.63
2022-10-13T22:05:03.786Z,100121.94
2022-10-13T22:07:05.607Z,100121.75
2022-10-13T22:09:07.391Z,100121.75
2022-10-13T22:11:10.370Z,100127.13
2022-10-13T22:13:12.100Z,100125.38
2022-10-13T22:15:13.754Z,100125.38
2022-10-13T22:17:15.534Z,100129.06
2022-10-13T22:19:18.240Z,100125.19
2022-10-13T22:21:21.946Z,100119.81
2022-10-13T22:23:23.570Z,100127.00
2022-10-13T22:25:25.405Z,100127.88
2022-10-13T22:27:27.158Z,100127.13
2022-10-13T22:29:28.924Z,100123.34
2022-10-13T22:31:30.837Z,100125.91
2022-10-13T22:33:34.090Z,100125.81
2022-10-13T22:35:35.802Z,100125.72
2022-10-13T22:37:37.517Z,100127.56
2022-10-13T22:39:39.266Z,100132.91
2022-10-13T22:41:40.980Z,100130.09
2022-10-13T22:43:42.841Z,100130.34
2022-10-13T22:45:51.299Z,100130.56
2022-10-13T22:47:52.982Z,100133.44
2022-10-13T22:49:54.690Z,100131.41
2022-10-13T22:51:56.409Z,100131.09
2022-10-13T22:53:58.304Z,100130.84
2022-10-13T22:56:00.464Z,100132.47
2022-10-13T22:58:02.177Z,100129.69
2022-10-13T23:00:04.955Z,100134.81
2022-10-13T23:02:06.653Z,100136.53
2022-10-13T23:04:08.353Z,100141.78
2022-10-13T23:06:13.482Z,100140.94
2022-10-13T23:08:15.126Z,100134.38
2022-10-13T23:10:17.039Z,100137.59
2022-10-13T23:12:18.805Z,100141.66
2022-10-13T23:14:20.557Z,100136.94
2022-10-13T23:16:23.929Z,100136.94
2022-10-13T23:18:25.662Z,100136.94
2022-10-13T23:20:29.236Z,100135.19
2022-10-13T23:22:30.933Z,100135.41
2022-10-13T23:24:32.737Z,100135.31
2022-10-13T23:26:34.628Z,100133.50
2022-10-13T23:28:36.464Z,100137.88
2022-10-13T23:30:38.286Z,100137.13
2022-10-13T23:32:40.047Z,100142.28
2022-10-13T23:34:41.707Z,100141.88
2022-10-13T23:36:43.548Z,100137.47
2022-10-13T23:38:45.199Z,100143.81
2022-10-13T23:40:46.845Z,100145.53
2022-10-13T23:42:48.540Z,100141.13
2022-10-13T23:44:50.289Z,100142.72
2022-10-13T23:46:51.980Z,100134.25
2022-10-13T23:48:53.731Z,100131.81
2022-10-13T23:50:55.464Z,100139.22
2022-10-13T23:52:57.209Z,100134.81